Time;durP1;ratioP1;P1;durP2;ratioP2;P2;SDS_P1;SDS_P2;PMS_P1;PMS_P2;Temp;Humidity;BMP_temperature;BMP_pressure;BME280_temperature;BME280_humidity;BME280_pressure;Samples;Min_cycle;Max_cycle;Signal;HPM_P1;HPM_P2
2023/05/04 00:02:16;;;;;;;27.60;11.70;;;;;;;-128.00;-1.00;-1.00;97854;296;1003259;-33
2023/05/04 00:04:42;;;;;;;31.20;12.60;;;;;;;-128.00;-1.00;-1.00;97930;297;1004322;-33
2023/05/04 00:07:08;;;;;;;14.50;7.30;;;;;;;-128.00;-1.00;-1.00;97918;285;1003476;-33
2023/05/04 00:09:33;;;;;;;19.10;10.80;;;;;;;-128.00;-1.00;-1.00;97924;296;1003645;-32
2023/05/04 00:11:59;;;;;;;12.90;4.80;;;;;;;-128.00;-1.00;-1.00;97825;296;1003189;-29
2023/05/04 00:14:24;;;;;;;8.20;4.50;;;;;;;-128.00;-1.00;-1.00;97942;297;1003826;-33
2023/05/04 00:16:50;;;;;;;13.20;7.10;;;;;;;-128.00;-1.00;-1.00;97903;296;1003712;-31
2023/05/04 00:19:18;;;;;;;11.90;5.90;;;;;;;-128.00;-1.00;-1.00;97858;296;1002953;-28
2023/05/04 00:21:44;;;;;;;18.20;7.10;;;;;;;-128.00;-1.00;-1.00;97860;289;1003168;-33
2023/05/04 00:24:09;;;;;;;13.40;6.70;;;;;;;-128.00;-1.00;-1.00;97896;285;1004532;-33
2023/05/04 00:26:35;;;;;;;11.40;7.20;;;;;;;-128.00;-1.00;-1.00;97956;289;1004209;-29
2023/05/04 00:29:00;;;;;;;12.40;7.00;;;;;;;-128.00;-1.00;-1.00;98006;296;1002829;-30
2023/05/04 00:31:26;;;;;;;12.50;6.80;;;;;;;-128.00;-1.00;-1.00;97885;285;1003806;-34
2023/05/04 00:33:51;;;;;;;17.30;10.30;;;;;;;-128.00;-1.00;-1.00;97951;285;1002727;-29
2023/05/04 00:36:17;;;;;;;17.00;7.40;;;;;;;-128.00;-1.00;-1.00;97823;296;1003498;-29
2023/05/04 00:38:48;;;;;;;13.70;8.60;;;;;;;-128.00;-1.00;-1.00;97812;296;1004088;-32
2023/05/04 00:41:14;;;;;;;18.70;9.70;;;;;;;-128.00;-1.00;-1.00;97907;284;1002799;-34
2023/05/04 00:43:40;;;;;;;10.80;6.20;;;;;;;-128.00;-1.00;-1.00;97954;296;1003692;-29
2023/05/04 00:46:05;;;;;;;9.60;4.90;;;;;;;-128.00;-1.00;-1.00;97833;285;1002748;-29
2023/05/04 00:48:31;;;;;;;11.70;6.90;;;;;;;-128.00;-1.00;-1.00;97859;296;1003531;-28
2023/05/04 00:50:57;;;;;;;19.70;10.20;;;;;;;-128.00;-1.00;-1.00;97941;285;1004933;-29
2023/05/04 00:53:23;;;;;;;10.10;6.40;;;;;;;-128.00;-1.00;-1.00;97892;285;1003806;-34
2023/05/04 00:55:48;;;;;;;7.40;4.90;;;;;;;-128.00;-1.00;-1.00;97918;285;1002977;-35
2023/05/04 00:58:14;;;;;;;14.50;7.40;;;;;;;-128.00;-1.00;-1.00;97845;297;1003757;-31
2023/05/04 01:00:39;;;;;;;14.80;6.70;;;;;;;-128.00;-1.00;-1.00;97826;297;1005107;-35
2023/05/04 01:03:05;;;;;;;7.40;4.60;;;;;;;-128.00;-1.00;-1.00;97867;297;1003533;-30
2023/05/04 01:05:35;;;;;;;6.20;3.10;;;;;;;-128.00;-1.00;-1.00;97795;285;1003448;-34
2023/05/04 01:08:07;;;;;;;10.00;4.00;;;;;;;-128.00;-1.00;-1.00;97966;296;1003861;-29
2023/05/04 01:10:46;;;;;;;18.90;6.70;;;;;;;-128.00;-1.00;-1.00;97885;296;1003346;-34
2023/05/04 01:13:13;;;;;;;12.50;5.30;;;;;;;-128.00;-1.00;-1.00;97954;285;1004489;-28
2023/05/04 01:15:39;;;;;;;10.40;4.60;;;;;;;-128.00;-1.00;-1.00;97860;296;1003957;-28
2023/05/04 01:18:05;;;;;;;15.80;6.90;;;;;;;-128.00;-1.00;-1.00;97861;296;1003251;-32
2023/05/04 01:20:31;;;;;;;13.70;7.90;;;;;;;-128.00;-1.00;-1.00;97877;285;1003136;-31
2023/05/04 01:22:56;;;;;;;14.50;7.90;;;;;;;-128.00;-1.00;-1.00;97922;296;1003357;-29
2023/05/04 01:25:23;;;;;;;20.80;8.90;;;;;;;-128.00;-1.00;-1.00;97834;285;1004688;-28
2023/05/04 01:27:55;;;;;;;14.00;6.70;;;;;;;-128.00;-1.00;-1.00;97878;297;1004328;-30
2023/05/04 01:30:24;;;;;;;15.60;8.60;;;;;;;-128.00;-1.00;-1.00;97894;296;1004717;-29
2023/05/04 01:32:51;;;;;;;14.40;8.40;;;;;;;-128.00;-1.00;-1.00;97770;296;1002857;-35
2023/05/04 01:35:17;;;;;;;12.30;6.40;;;;;;;-128.00;-1.00;-1.00;97782;296;1003687;-35
2023/05/04 01:37:42;;;;;;;16.10;8.00;;;;;;;-128.00;-1.00;-1.00;97907;297;1003059;-35
2023/05/04 01:40:09;;;;;;;11.60;5.90;;;;;;;-128.00;-1.00;-1.00;97868;285;1004718;-29
2023/05/04 01:42:34;;;;;;;9.20;5.60;;;;;;;-128.00;-1.00;-1.00;97774;285;1004345;-35
2023/05/04 01:45:00;;;;;;;27.10;7.60;;;;;;;-128.00;-1.00;-1.00;97944;296;1003079;-30
2023/05/04 01:47:27;;;;;;;21.60;13.60;;;;;;;-128.00;-1.00;-1.00;74902;296;7503914;-33
2023/05/04 01:49:53;;;;;;;24.40;12.90;;;;;;;-128.00;-1.00;-1.00;20279;285;7504514;-33
2023/05/04 01:52:21;;;;;;;13.00;5.80;;;;;;;-128.00;-1.00;-1.00;19557;341;7506199;-30
2023/05/04 01:54:47;;;;;;;15.20;6.30;;;;;;;-128.00;-1.00;-1.00;19244;285;7505636;-34
2023/05/04 01:57:13;;;;;;;13.40;8.00;;;;;;;-128.00;-1.00;-1.00;18869;296;7504460;-34
2023/05/04 01:59:39;;;;;;;14.80;9.30;;;;;;;-128.00;-1.00;-1.00;18935;313;7505975;-33
2023/05/04 02:02:05;;;;;;;17.50;9.70;;;;;;;-128.00;-1.00;-1.00;19030;289;7504529;-29
2023/05/04 02:04:32;;;;;;;16.80;7.40;;;;;;;-128.00;-1.00;-1.00;18869;305;7505138;-28
2023/05/04 02:06:59;;;;;;;10.80;5.30;;;;;;;-128.00;-1.00;-1.00;18483;289;7504645;-33
2023/05/04 02:09:25;;;;;;;24.90;10.80;;;;;;;-128.00;-1.00;-1.00;18869;285;7504514;-30
2023/05/04 02:11:51;;;;;;;21.90;10.90;;;;;;;-128.00;-1.00;-1.00;18883;285;7504380;-29
2023/05/04 02:14:17;;;;;;;20.40;8.30;;;;;;;-128.00;-1.00;-1.00;18855;289;7504519;-34
2023/05/04 02:16:43;;;;;;;11.90;5.70;;;;;;;-128.00;-1.00;-1.00;18862;296;7504178;-30
2023/05/04 02:19:09;;;;;;;15.20;7.50;;;;;;;-128.00;-1.00;-1.00;18874;285;7504493;-33
2023/05/04 02:21:35;;;;;;;22.50;11.70;;;;;;;-128.00;-1.00;-1.00;18838;297;7504610;-31
2023/05/04 02:24:05;;;;;;;24.20;11.90;;;;;;;-128.00;-1.00;-1.00;18869;285;7504415;-30
2023/05/04 02:26:30;;;;;;;32.20;11.30;;;;;;;-128.00;-1.00;-1.00;18464;297;7505277;-30
2023/05/04 02:28:56;;;;;;;16.40;8.70;;;;;;;-128.00;-1.00;-1.00;18881;289;7504498;-29
2023/05/04 02:31:23;;;;;;;19.90;10.00;;;;;;;-128.00;-1.00;-1.00;18848;348;7505558;-34
2023/05/04 02:33:51;;;;;;;20.50;10.50;;;;;;;-128.00;-1.00;-1.00;18860;297;7505558;-34
2023/05/04 02:36:16;;;;;;;19.20;9.10;;;;;;;-128.00;-1.00;-1.00;18448;297;7504199;-30
2023/05/04 02:38:42;;;;;;;23.60;11.00;;;;;;;-128.00;-1.00;-1.00;18872;297;7505506;-29
2023/05/04 02:41:09;;;;;;;14.00;8.30;;;;;;;-128.00;-1.00;-1.00;18873;297;7505690;-29
2023/05/04 02:43:35;;;;;;;26.20;10.40;;;;;;;-128.00;-1.00;-1.00;18881;285;7504174;-30
2023/05/04 02:46:01;;;;;;;17.90;8.60;;;;;;;-128.00;-1.00;-1.00;18856;297;7505269;-30
2023/05/04 02:48:27;;;;;;;18.60;9.50;;;;;;;-128.00;-1.00;-1.00;18862;297;7504976;-30
2023/05/04 02:50:55;;;;;;;16.80;8.00;;;;;;;-128.00;-1.00;-1.00;18869;285;7504311;-28
2023/05/04 02:53:21;;;;;;;19.60;9.50;;;;;;;-128.00;-1.00;-1.00;18475;297;7504849;-30
2023/05/04 02:55:47;;;;;;;13.30;6.90;;;;;;;-128.00;-1.00;-1.00;18482;297;7506186;-31
2023/05/04 02:58:12;;;;;;;15.60;9.10;;;;;;;-128.00;-1.00;-1.00;18463;289;7505910;-36
2023/05/04 03:00:38;;;;;;;20.50;10.40;;;;;;;-128.00;-1.00;-1.00;18455;297;7505301;-28
2023/05/04 03:03:04;;;;;;;23.00;8.80;;;;;;;-128.00;-1.00;-1.00;18863;297;7504942;-30
2023/05/04 03:05:30;;;;;;;26.00;11.60;;;;;;;-128.00;-1.00;-1.00;18890;289;7504363;-32
2023/05/04 03:07:56;;;;;;;31.90;11.70;;;;;;;-128.00;-1.00;-1.00;18885;345;7504771;-34
2023/05/04 03:10:23;;;;;;;20.50;9.70;;;;;;;-128.00;-1.00;-1.00;18867;308;7505235;-30
2023/05/04 03:12:49;;;;;;;17.80;9.00;;;;;;;-128.00;-1.00;-1.00;18865;289;7504198;-30
2023/05/04 03:15:15;;;;;;;13.10;7.10;;;;;;;-128.00;-1.00;-1.00;18861;298;7504718;-33
2023/05/04 03:17:42;;;;;;;11.00;5.60;;;;;;;-128.00;-1.00;-1.00;18869;289;7504616;-34
2023/05/04 03:20:09;;;;;;;17.30;8.70;;;;;;;-128.00;-1.00;-1.00;18851;297;7505272;-30
2023/05/04 03:22:34;;;;;;;15.60;8.70;;;;;;;-128.00;-1.00;-1.00;18479;320;7506030;-33
2023/05/04 03:25:00;;;;;;;21.20;11.40;;;;;;;-128.00;-1.00;-1.00;18874;308;7504131;-30
2023/05/04 03:27:27;;;;;;;10.20;6.40;;;;;;;-128.00;-1.00;-1.00;18854;285;7505015;-34
2023/05/04 03:29:53;;;;;;;9.20;5.10;;;;;;;-128.00;-1.00;-1.00;18857;332;7504861;-30
2023/05/04 03:32:19;;;;;;;13.60;7.30;;;;;;;-128.00;-1.00;-1.00;18863;296;7504915;-30
2023/05/04 03:34:45;;;;;;;34.90;9.50;;;;;;;-128.00;-1.00;-1.00;18483;285;7504578;-34
2023/05/04 03:37:11;;;;;;;16.20;8.30;;;;;;;-128.00;-1.00;-1.00;18474;341;7505345;-34
2023/05/04 03:39:37;;;;;;;18.80;9.20;;;;;;;-128.00;-1.00;-1.00;18467;296;7504650;-34
2023/05/04 03:42:03;;;;;;;14.30;6.90;;;;;;;-128.00;-1.00;-1.00;18841;348;7504482;-34
2023/05/04 03:44:29;;;;;;;20.90;9.30;;;;;;;-128.00;-1.00;-1.00;18872;297;7505534;-34
2023/05/04 03:46:55;;;;;;;17.10;9.90;;;;;;;-128.00;-1.00;-1.00;18878;298;7504904;-33
2023/05/04 03:49:22;;;;;;;21.70;11.00;;;;;;;-128.00;-1.00;-1.00;18834;297;7505062;-30
2023/05/04 03:51:48;;;;;;;25.40;12.10;;;;;;;-128.00;-1.00;-1.00;18873;289;7504846;-29
2023/05/04 03:54:14;;;;;;;19.10;10.30;;;;;;;-128.00;-1.00;-1.00;18885;297;7505183;-29
2023/05/04 03:56:40;;;;;;;24.70;11.50;;;;;;;-128.00;-1.00;-1.00;18872;297;7504060;-31
2023/05/04 03:59:06;;;;;;;20.20;11.00;;;;;;;-128.00;-1.00;-1.00;18868;297;7504302;-30
2023/05/04 04:01:33;;;;;;;21.50;9.80;;;;;;;-128.00;-1.00;-1.00;18865;297;7505470;-30
2023/05/04 04:03:59;;;;;;;17.20;10.80;;;;;;;-128.00;-1.00;-1.00;18869;297;7505357;-30
2023/05/04 04:06:26;;;;;;;11.70;8.30;;;;;;;-128.00;-1.00;-1.00;18874;297;7505461;-31
2023/05/04 04:08:52;;;;;;;18.30;9.30;;;;;;;-128.00;-1.00;-1.00;18467;320;7505226;-34
2023/05/04 04:11:17;;;;;;;17.50;9.40;;;;;;;-128.00;-1.00;-1.00;18455;297;7506295;-30
2023/05/04 04:13:44;;;;;;;22.00;9.60;;;;;;;-128.00;-1.00;-1.00;18871;297;7504425;-31
2023/05/04 04:16:10;;;;;;;21.20;10.50;;;;;;;-128.00;-1.00;-1.00;18856;297;7504600;-33
2023/05/04 04:18:36;;;;;;;19.90;9.90;;;;;;;-128.00;-1.00;-1.00;18880;341;7504578;-30
2023/05/04 04:21:03;;;;;;;17.10;9.10;;;;;;;-128.00;-1.00;-1.00;18839;297;7504378;-28
2023/05/04 04:23:29;;;;;;;27.30;9.20;;;;;;;-128.00;-1.00;-1.00;18862;341;7505312;-30
2023/05/04 04:25:55;;;;;;;17.60;8.40;;;;;;;-128.00;-1.00;-1.00;18468;337;7504885;-31
2023/05/04 04:28:21;;;;;;;19.90;9.90;;;;;;;-128.00;-1.00;-1.00;18898;289;7504295;-30
2023/05/04 04:30:48;;;;;;;22.00;10.00;;;;;;;-128.00;-1.00;-1.00;18874;304;7504549;-34
2023/05/04 04:33:15;;;;;;;15.80;6.90;;;;;;;-128.00;-1.00;-1.00;18878;297;7505005;-34
2023/05/04 04:35:40;;;;;;;8.60;5.10;;;;;;;-128.00;-1.00;-1.00;18459;285;7504771;-29
2023/05/04 04:38:07;;;;;;;13.20;7.10;;;;;;;-128.00;-1.00;-1.00;18871;297;7504191;-29
2023/05/04 05:18:29;;;;;;;16.70;11.20;;;;;;;-100.87;16.30;20060.39;98305;295;1544979;-29
2023/05/04 05:20:55;;;;;;;14.20;7.70;;;;;;;-128.00;-1.00;-1.00;97501;297;1003196;-29
2023/05/04 05:23:21;;;;;;;15.10;9.50;;;;;;;-128.00;-1.00;-1.00;98057;295;1004155;-29
2023/05/04 05:25:46;;;;;;;8.80;7.60;;;;;;;-128.00;-1.00;-1.00;97850;295;1002832;-36
2023/05/04 05:28:13;;;;;;;12.50;8.70;;;;;;;-128.00;-1.00;-1.00;97942;295;1005014;-30
2023/05/04 05:30:38;;;;;;;18.10;9.40;;;;;;;-128.00;-1.00;-1.00;97845;295;1003582;-35
2023/05/04 05:33:04;;;;;;;13.30;8.00;;;;;;;-128.00;-1.00;-1.00;97796;295;1004520;-34
2023/05/04 05:35:30;;;;;;;17.00;9.10;;;;;;;-128.00;-1.00;-1.00;97910;295;1003350;-38
2023/05/04 05:37:56;;;;;;;17.10;8.30;;;;;;;-128.00;-1.00;-1.00;98007;295;1004190;-31
2023/05/04 05:40:22;;;;;;;11.90;6.70;;;;;;;-128.00;-1.00;-1.00;97885;297;1005149;-35
2023/05/04 05:42:48;;;;;;;14.90;9.10;;;;;;;-128.00;-1.00;-1.00;97829;295;1003074;-33
2023/05/04 05:45:14;;;;;;;9.00;6.50;;;;;;;-128.00;-1.00;-1.00;97899;295;1002582;-34
2023/05/04 05:47:40;;;;;;;9.90;7.10;;;;;;;-128.00;-1.00;-1.00;97866;295;1002765;-30
2023/05/04 05:50:06;;;;;;;13.10;5.70;;;;;;;-128.00;-1.00;-1.00;97862;295;1003243;-30
2023/05/04 05:52:31;;;;;;;12.90;6.00;;;;;;;-128.00;-1.00;-1.00;97861;288;1003074;-30
2023/05/04 05:54:57;;;;;;;8.90;6.00;;;;;;;-128.00;-1.00;-1.00;97842;284;1003724;-29
2023/05/04 05:57:23;;;;;;;9.20;6.00;;;;;;;-128.00;-1.00;-1.00;97871;295;1003372;-35
2023/05/04 05:59:49;;;;;;;9.30;6.60;;;;;;;-128.00;-1.00;-1.00;97832;295;1003242;-30
2023/05/04 06:02:14;;;;;;;12.80;5.20;;;;;;;-128.00;-1.00;-1.00;97822;295;1003559;-29
2023/05/04 06:04:41;;;;;;;10.40;6.20;;;;;;;-128.00;-1.00;-1.00;97925;295;1004654;-36
2023/05/04 06:07:07;;;;;;;16.20;8.10;;;;;;;-128.00;-1.00;-1.00;97850;285;1003606;-34
2023/05/04 06:09:32;;;;;;;9.60;6.30;;;;;;;-128.00;-1.00;-1.00;97977;284;1004276;-34
2023/05/04 06:11:58;;;;;;;7.40;4.50;;;;;;;-128.00;-1.00;-1.00;97855;295;1004007;-35
2023/05/04 06:14:24;;;;;;;9.30;5.50;;;;;;;-128.00;-1.00;-1.00;97915;295;1003386;-30
2023/05/04 06:16:49;;;;;;;8.40;5.20;;;;;;;-128.00;-1.00;-1.00;97942;295;1003933;-34
2023/05/04 06:19:15;;;;;;;13.20;6.30;;;;;;;-128.00;-1.00;-1.00;97909;295;1003624;-35
2023/05/04 06:21:40;;;;;;;8.70;5.00;;;;;;;-128.00;-1.00;-1.00;97954;295;1003721;-30
2023/05/04 06:24:06;;;;;;;18.90;7.40;;;;;;;-128.00;-1.00;-1.00;97779;295;1005399;-31
2023/05/04 06:26:32;;;;;;;8.20;4.80;;;;;;;-128.00;-1.00;-1.00;97990;295;1005419;-30
2023/05/04 06:28:57;;;;;;;17.60;6.30;;;;;;;-128.00;-1.00;-1.00;97926;295;1004562;-30
2023/05/04 06:31:23;;;;;;;11.80;4.60;;;;;;;-128.00;-1.00;-1.00;97888;295;1002996;-35
2023/05/04 06:33:49;;;;;;;5.50;3.50;;;;;;;-128.00;-1.00;-1.00;97934;296;1003101;-30
2023/05/04 06:36:15;;;;;;;9.60;2.50;;;;;;;-128.00;-1.00;-1.00;97839;296;1003273;-36
2023/05/04 06:38:41;;;;;;;4.00;2.60;;;;;;;-128.00;-1.00;-1.00;97950;295;1003945;-35
2023/05/04 06:41:07;;;;;;;16.80;3.70;;;;;;;-128.00;-1.00;-1.00;97954;295;1003943;-29
2023/05/04 06:43:32;;;;;;;4.80;2.70;;;;;;;-128.00;-1.00;-1.00;97973;296;1003535;-30
2023/05/04 06:46:02;;;;;;;11.40;4.20;;;;;;;-128.00;-1.00;-1.00;97951;295;1003314;-34
2023/05/04 06:48:28;;;;;;;5.20;2.00;;;;;;;-128.00;-1.00;-1.00;97947;295;1004183;-32
2023/05/04 06:50:54;;;;;;;11.90;2.50;;;;;;;-128.00;-1.00;-1.00;97976;295;1003119;-31
2023/05/04 06:53:20;;;;;;;12.20;3.50;;;;;;;-128.00;-1.00;-1.00;97778;284;1003294;-36
2023/05/04 06:55:46;;;;;;;4.20;2.90;;;;;;;-128.00;-1.00;-1.00;97902;283;1002991;-30
2023/05/04 06:58:11;;;;;;;7.20;3.20;;;;;;;-128.00;-1.00;-1.00;97956;296;1004431;-34
2023/05/04 07:00:38;;;;;;;3.20;2.20;;;;;;;-128.00;-1.00;-1.00;97967;295;1003836;-34
2023/05/04 07:03:03;;;;;;;2.60;1.90;;;;;;;-128.00;-1.00;-1.00;97992;295;1003519;-34
2023/05/04 07:05:29;;;;;;;4.40;2.40;;;;;;;-128.00;-1.00;-1.00;97882;295;1003836;-30
2023/05/04 07:07:57;;;;;;;2.70;1.70;;;;;;;-128.00;-1.00;-1.00;97895;295;1004927;-35
2023/05/04 07:10:23;;;;;;;4.50;2.30;;;;;;;-128.00;-1.00;-1.00;97961;296;1002967;-35
2023/05/04 07:12:48;;;;;;;9.40;2.40;;;;;;;-128.00;-1.00;-1.00;97777;296;1003266;-31
2023/05/04 07:15:14;;;;;;;3.00;1.50;;;;;;;-128.00;-1.00;-1.00;98016;295;1003705;-35
2023/05/04 07:17:40;;;;;;;1.80;1.00;;;;;;;-128.00;-1.00;-1.00;97936;295;1002837;-31
2023/05/04 07:20:06;;;;;;;2.20;1.40;;;;;;;-128.00;-1.00;-1.00;97780;296;1004703;-35
2023/05/04 07:22:32;;;;;;;3.30;1.70;;;;;;;-128.00;-1.00;-1.00;97876;295;1003149;-31
2023/05/04 07:24:59;;;;;;;4.90;1.70;;;;;;;-128.00;-1.00;-1.00;98070;295;1003322;-30
2023/05/04 07:27:25;;;;;;;1.30;0.70;;;;;;;-128.00;-1.00;-1.00;97918;296;1003257;-35
2023/05/04 07:29:50;;;;;;;2.60;1.30;;;;;;;-128.00;-1.00;-1.00;97812;295;1003495;-35
2023/05/04 07:32:16;;;;;;;3.60;1.50;;;;;;;-128.00;-1.00;-1.00;97937;295;1002916;-35
2023/05/04 07:34:45;;;;;;;2.70;1.70;;;;;;;-128.00;-1.00;-1.00;97868;295;1003088;-34
2023/05/04 07:37:11;;;;;;;4.20;1.00;;;;;;;-128.00;-1.00;-1.00;97998;284;1004326;-31
2023/05/04 07:39:40;;;;;;;1.50;0.80;;;;;;;-128.00;-1.00;-1.00;97904;296;1003237;-31
2023/05/04 07:42:06;;;;;;;5.90;1.30;;;;;;;-128.00;-1.00;-1.00;97906;295;1003317;-31
2023/05/04 07:44:32;;;;;;;2.10;1.20;;;;;;;-128.00;-1.00;-1.00;97937;295;1002601;-35
2023/05/04 07:46:58;;;;;;;3.40;0.70;;;;;;;-128.00;-1.00;-1.00;97904;295;1003740;-35
2023/05/04 07:49:24;;;;;;;2.20;1.40;;;;;;;-128.00;-1.00;-1.00;97798;295;1003202;-35
2023/05/04 07:51:50;;;;;;;7.50;1.80;;;;;;;-128.00;-1.00;-1.00;97966;287;1003107;-37
2023/05/04 07:54:16;;;;;;;2.00;1.10;;;;;;;-128.00;-1.00;-1.00;97911;295;1003202;-30
2023/05/04 07:56:42;;;;;;;2.10;0.80;;;;;;;-128.00;-1.00;-1.00;98004;287;1003794;-30
2023/05/04 07:59:08;;;;;;;1.80;1.10;;;;;;;-128.00;-1.00;-1.00;97830;287;1002859;-35
2023/05/04 08:01:33;;;;;;;1.00;0.70;;;;;;;-128.00;-1.00;-1.00;97969;296;1003413;-33
2023/05/04 08:03:59;;;;;;;1.20;0.90;;;;;;;-128.00;-1.00;-1.00;97930;295;1005183;-30
2023/05/04 08:06:25;;;;;;;6.10;0.90;;;;;;;-128.00;-1.00;-1.00;97851;296;1003238;-30
2023/05/04 08:08:50;;;;;;;2.30;0.90;;;;;;;-128.00;-1.00;-1.00;97788;296;1003218;-30
2023/05/04 08:11:16;;;;;;;3.60;0.80;;;;;;;-128.00;-1.00;-1.00;97914;283;1003128;-35
2023/05/04 08:13:45;;;;;;;3.20;1.30;;;;;;;-128.00;-1.00;-1.00;98045;295;1003101;-31
2023/05/04 08:16:11;;;;;;;1.60;1.10;;;;;;;-128.00;-1.00;-1.00;97924;295;1003153;-31
2023/05/04 08:18:37;;;;;;;3.30;0.80;;;;;;;-128.00;-1.00;-1.00;97758;296;1003769;-35
2023/05/04 08:21:03;;;;;;;3.50;1.10;;;;;;;-128.00;-1.00;-1.00;97945;295;1003434;-35
2023/05/04 08:23:30;;;;;;;2.20;1.10;;;;;;;-128.00;-1.00;-1.00;97970;295;1003320;-31
2023/05/04 08:25:56;;;;;;;1.00;0.90;;;;;;;-128.00;-1.00;-1.00;98006;295;1004353;-37
2023/05/04 08:28:22;;;;;;;1.60;0.70;;;;;;;-128.00;-1.00;-1.00;97957;295;1004026;-31
2023/05/04 08:30:48;;;;;;;2.70;1.00;;;;;;;-128.00;-1.00;-1.00;97795;296;1003342;-32
2023/05/04 08:33:14;;;;;;;0.90;0.40;;;;;;;-128.00;-1.00;-1.00;97891;295;1003510;-30
2023/05/04 08:35:39;;;;;;;1.90;1.30;;;;;;;-128.00;-1.00;-1.00;97832;296;1003067;-35
2023/05/04 08:38:06;;;;;;;1.40;0.60;;;;;;;-128.00;-1.00;-1.00;97842;295;1003235;-35
2023/05/04 08:40:32;;;;;;;1.20;0.90;;;;;;;-128.00;-1.00;-1.00;97828;295;1005456;-35
2023/05/04 08:42:58;;;;;;;2.80;1.20;;;;;;;-128.00;-1.00;-1.00;97836;296;1004351;-35
2023/05/04 08:45:24;;;;;;;1.80;0.60;;;;;;;-128.00;-1.00;-1.00;97812;295;1003018;-35
2023/05/04 08:47:49;;;;;;;3.20;1.30;;;;;;;-128.00;-1.00;-1.00;97818;295;1003107;-31
2023/05/04 08:50:15;;;;;;;3.30;1.10;;;;;;;-128.00;-1.00;-1.00;97849;295;1003107;-36
2023/05/04 08:52:47;;;;;;;4.00;1.30;;;;;;;-128.00;-1.00;-1.00;97905;295;1003411;-36
2023/05/04 08:55:15;;;;;;;3.30;1.00;;;;;;;-128.00;-1.00;-1.00;97937;295;1003336;-32
2023/05/04 08:57:42;;;;;;;1.80;0.80;;;;;;;-128.00;-1.00;-1.00;97863;295;1002910;-37
2023/05/04 09:00:10;;;;;;;2.20;1.20;;;;;;;-128.00;-1.00;-1.00;97839;296;1002971;-32
2023/05/04 09:02:36;;;;;;;1.80;1.00;;;;;;;-128.00;-1.00;-1.00;97975;296;1002742;-32
2023/05/04 09:05:02;;;;;;;3.20;1.30;;;;;;;-128.00;-1.00;-1.00;97842;296;1002982;-35
2023/05/04 09:07:28;;;;;;;2.10;0.90;;;;;;;-128.00;-1.00;-1.00;98008;296;1003165;-34
2023/05/04 09:09:53;;;;;;;2.40;0.90;;;;;;;-128.00;-1.00;-1.00;97819;284;1003480;-31
2023/05/04 09:12:19;;;;;;;1.50;1.00;;;;;;;-128.00;-1.00;-1.00;97865;295;1003178;-35
2023/05/04 09:14:45;;;;;;;5.60;1.20;;;;;;;-128.00;-1.00;-1.00;97879;295;1003069;-35
2023/05/04 09:17:12;;;;;;;2.60;1.10;;;;;;;-128.00;-1.00;-1.00;97853;297;1004178;-35
2023/05/04 09:19:42;;;;;;;2.70;1.10;;;;;;;-128.00;-1.00;-1.00;97879;295;1003626;-31
2023/05/04 09:22:20;;;;;;;2.50;1.00;;;;;;;-128.00;-1.00;-1.00;97833;296;1003738;-35
2023/05/04 09:24:46;;;;;;;5.00;1.00;;;;;;;-128.00;-1.00;-1.00;97920;296;1003400;-32
2023/05/04 09:27:12;;;;;;;1.70;1.20;;;;;;;-128.00;-1.00;-1.00;97928;287;1003755;-36
2023/05/04 09:29:39;;;;;;;2.70;1.20;;;;;;;-128.00;-1.00;-1.00;97910;283;1005605;-31
2023/05/04 09:32:13;;;;;;;1.20;1.00;;;;;;;-128.00;-1.00;-1.00;97942;295;1003139;-35
2023/05/04 09:34:51;;;;;;;1.40;0.80;;;;;;;-128.00;-1.00;-1.00;97852;283;1003046;-35
2023/05/04 09:37:19;;;;;;;1.80;0.90;;;;;;;-128.00;-1.00;-1.00;97911;295;1003443;-31
2023/05/04 09:39:56;;;;;;;4.80;1.10;;;;;;;-128.00;-1.00;-1.00;97998;295;1003172;-31
2023/05/04 09:42:23;;;;;;;1.10;0.80;;;;;;;-128.00;-1.00;-1.00;97729;296;1003013;-35
2023/05/04 09:45:01;;;;;;;1.60;1.20;;;;;;;-128.00;-1.00;-1.00;97847;295;1003984;-31
2023/05/04 09:47:33;;;;;;;2.40;1.10;;;;;;;-128.00;-1.00;-1.00;97892;295;1003629;-31
2023/05/04 09:50:16;;;;;;;1.40;1.10;;;;;;;-128.00;-1.00;-1.00;97780;287;1003737;-31
2023/05/04 09:52:43;;;;;;;3.90;1.00;;;;;;;-128.00;-1.00;-1.00;97878;295;1002823;-31
2023/05/04 09:55:13;;;;;;;2.10;0.90;;;;;;;-128.00;-1.00;-1.00;98084;295;1003248;-31
2023/05/04 09:57:40;;;;;;;2.00;1.00;;;;;;;-128.00;-1.00;-1.00;97926;295;1003529;-30
2023/05/04 10:00:08;;;;;;;1.60;1.00;;;;;;;-128.00;-1.00;-1.00;97984;295;1003057;-33
2023/05/04 10:02:34;;;;;;;1.70;0.70;;;;;;;-128.00;-1.00;-1.00;98065;295;1003218;-32
2023/05/04 10:05:00;;;;;;;3.40;0.80;;;;;;;-128.00;-1.00;-1.00;97987;295;1003177;-35
2023/05/04 10:07:29;;;;;;;2.20;0.80;;;;;;;-128.00;-1.00;-1.00;97815;296;1004096;-31
2023/05/04 10:09:57;;;;;;;1.50;0.90;;;;;;;-128.00;-1.00;-1.00;98115;295;1003281;-31
2023/05/04 10:12:22;;;;;;;5.30;1.00;;;;;;;-128.00;-1.00;-1.00;97977;295;1003287;-35
2023/05/04 10:14:48;;;;;;;2.40;1.00;;;;;;;-128.00;-1.00;-1.00;97758;296;1003462;-31
2023/05/04 10:17:37;;;;;;;0.90;0.80;;;;;;;-128.00;-1.00;-1.00;97866;284;1003299;-31
2023/05/04 10:20:35;;;;;;;2.40;1.00;;;;;;;-128.00;-1.00;-1.00;98021;296;1003994;-30
2023/05/04 10:23:11;;;;;;;0.90;0.60;;;;;;;-128.00;-1.00;-1.00;97957;296;1003142;-30
2023/05/04 10:26:00;;;;;;;1.90;0.90;;;;;;;-128.00;-1.00;-1.00;97779;296;1003192;-32
2023/05/04 10:28:50;;;;;;;1.00;0.80;;;;;;;-128.00;-1.00;-1.00;97976;295;1005050;-31
2023/05/04 10:31:17;;;;;;;3.50;1.10;;;;;;;-128.00;-1.00;-1.00;97877;284;1003869;-31
2023/05/04 10:33:42;;;;;;;1.50;1.00;;;;;;;-128.00;-1.00;-1.00;97875;295;1003130;-34
2023/05/04 10:36:08;;;;;;;1.50;0.70;;;;;;;-128.00;-1.00;-1.00;97885;295;1003700;-30
2023/05/04 10:38:35;;;;;;;3.90;1.10;;;;;;;-128.00;-1.00;-1.00;97903;295;1003170;-30
2023/05/04 10:41:18;;;;;;;2.20;1.00;;;;;;;-128.00;-1.00;-1.00;97935;295;1002897;-35
2023/05/04 10:43:49;;;;;;;0.60;0.50;;;;;;;-128.00;-1.00;-1.00;97920;295;1003983;-35
2023/05/04 10:46:17;;;;;;;1.30;0.70;;;;;;;-128.00;-1.00;-1.00;97989;295;1003420;-30
2023/05/04 10:48:42;;;;;;;7.40;1.00;;;;;;;-128.00;-1.00;-1.00;97826;284;1003363;-35
2023/05/04 10:51:17;;;;;;;2.90;0.90;;;;;;;-128.00;-1.00;-1.00;97932;295;1002883;-29
2023/05/04 10:53:43;;;;;;;3.60;1.00;;;;;;;-128.00;-1.00;-1.00;98075;295;1003828;-31
2023/05/04 10:56:08;;;;;;;3.00;1.20;;;;;;;-128.00;-1.00;-1.00;97799;295;1003287;-34
2023/05/04 10:58:34;;;;;;;1.50;1.00;;;;;;;-128.00;-1.00;-1.00;97793;297;1004209;-30
2023/05/04 11:01:00;;;;;;;1.20;0.60;;;;;;;-128.00;-1.00;-1.00;97844;295;1004564;-30
2023/05/04 11:03:25;;;;;;;1.20;0.70;;;;;;;-128.00;-1.00;-1.00;98003;295;1004260;-34
2023/05/04 11:05:54;;;;;;;1.70;0.90;;;;;;;-128.00;-1.00;-1.00;97852;295;1003419;-35
2023/05/04 11:47:59;;;;;;;1.10;0.50;;;;;;;-98.16;4.86;20028.28;98047;294;1545264;-32
2023/05/04 11:50:26;;;;;;;3.00;1.30;;;;;;;-128.00;-1.00;-1.00;97300;284;1005900;-36
2023/05/04 11:53:06;;;;;;;1.50;1.00;;;;;;;-128.00;-1.00;-1.00;97802;296;1005769;-30
2023/05/04 11:55:32;;;;;;;1.90;1.00;;;;;;;-128.00;-1.00;-1.00;97585;296;1004083;-30
2023/05/04 11:58:05;;;;;;;2.40;1.10;;;;;;;-128.00;-1.00;-1.00;97661;295;1004449;-36
2023/05/04 12:00:38;;;;;;;2.40;0.80;;;;;;;-128.00;-1.00;-1.00;97783;296;1004762;-37
2023/05/04 12:03:05;;;;;;;2.30;0.90;;;;;;;-128.00;-1.00;-1.00;97632;296;1005654;-34
2023/05/04 12:05:31;;;;;;;0.90;0.80;;;;;;;-128.00;-1.00;-1.00;97602;286;1005165;-30
2023/05/04 12:07:57;;;;;;;1.10;0.60;;;;;;;-128.00;-1.00;-1.00;97611;292;1005562;-34
2023/05/04 12:10:25;;;;;;;4.10;0.80;;;;;;;-128.00;-1.00;-1.00;97698;285;1004757;-34
2023/05/04 12:12:51;;;;;;;2.20;0.70;;;;;;;-128.00;-1.00;-1.00;97598;286;1004627;-34
2023/05/04 12:15:26;;;;;;;1.50;0.90;;;;;;;-128.00;-1.00;-1.00;97758;296;1004986;-30
2023/05/04 12:17:52;;;;;;;2.10;1.10;;;;;;;-128.00;-1.00;-1.00;97640;296;1004168;-35
2023/05/04 12:20:23;;;;;;;2.40;1.60;;;;;;;-128.00;-1.00;-1.00;97551;296;1006093;-35
2023/05/04 12:22:48;;;;;;;1.90;0.70;;;;;;;-128.00;-1.00;-1.00;97607;297;1005300;-35
2023/05/04 12:25:17;;;;;;;3.10;1.30;;;;;;;-128.00;-1.00;-1.00;97615;296;1006196;-35
2023/05/04 12:27:42;;;;;;;1.00;0.90;;;;;;;-128.00;-1.00;-1.00;97690;296;1004189;-36
2023/05/04 12:30:09;;;;;;;4.70;0.80;;;;;;;-128.00;-1.00;-1.00;97573;296;1005210;-34
2023/05/04 12:32:35;;;;;;;5.80;0.90;;;;;;;-128.00;-1.00;-1.00;97602;285;1005023;-35
2023/05/04 12:35:02;;;;;;;5.40;1.40;;;;;;;-128.00;-1.00;-1.00;97640;285;1005398;-31
2023/05/04 12:37:28;;;;;;;1.00;0.80;;;;;;;-128.00;-1.00;-1.00;97575;288;1004661;-31
2023/05/04 12:39:53;;;;;;;1.50;0.80;;;;;;;-128.00;-1.00;-1.00;97575;296;1005188;-31
2023/05/04 12:42:19;;;;;;;2.60;0.60;;;;;;;-128.00;-1.00;-1.00;97621;296;1005343;-32
2023/05/04 12:44:45;;;;;;;1.30;0.90;;;;;;;-128.00;-1.00;-1.00;97652;296;1005050;-37
2023/05/04 12:47:10;;;;;;;1.20;0.80;;;;;;;-128.00;-1.00;-1.00;97628;296;1005208;-37